Time;durP1;ratioP1;P1;durP2;ratioP2;P2;SDS_P1;SDS_P2;PMS_P1;PMS_P2;Temp;Humidity;BMP_temperature;BMP_pressure;BME280_temperature;BME280_humidity;BME280_pressure;Samples;Min_cycle;Max_cycle;Signal;HPM_P1;HPM_P2
2023/04/07 00:00:59;;;;;;;0.00;0.00;;;;;;;;;;5035465;28;20128;-89
2023/04/07 00:03:25;;;;;;;0.00;0.00;;;;;;;;;;5034974;28;20033;-91
2023/04/07 00:05:51;;;;;;;0.00;0.00;;;;;;;;;;5034981;28;20473;-90
2023/04/07 00:08:17;;;;;;;0.00;0.00;;;;;;;;;;5035501;28;20087;-89
2023/04/07 00:10:43;;;;;;;0.00;0.00;;;;;;;;;;5035100;28;20102;-89
2023/04/07 00:13:09;;;;;;;0.00;0.00;;;;;;;;;;5035162;28;20041;-90
2023/04/07 00:15:35;;;;;;;0.00;0.00;;;;;;;;;;5035423;28;20045;-89
2023/04/07 00:18:01;;;;;;;0.05;0.00;;;;;;;;;;5051419;28;20124;-89
2023/04/07 00:20:27;;;;;;;0.00;0.00;;;;;;;;;;5034960;28;20102;-88
2023/04/07 00:22:53;;;;;;;0.00;0.00;;;;;;;;;;5052177;28;20064;-90
2023/04/07 00:25:19;;;;;;;0.00;0.00;;;;;;;;;;5051696;28;20041;-89
2023/04/07 00:27:46;;;;;;;0.13;0.10;;;;;;;;;;5035719;28;20107;-89
2023/04/07 00:30:14;;;;;;;0.00;0.00;;;;;;;;;;5051569;28;20383;-90
2023/04/07 00:32:40;;;;;;;0.00;0.00;;;;;;;;;;5034913;28;20045;-91
2023/04/07 00:35:06;;;;;;;0.00;0.00;;;;;;;;;;5034741;28;20519;-88
2023/04/07 00:37:32;;;;;;;0.00;0.00;;;;;;;;;;5034589;28;20041;-89
2023/04/07 00:39:58;;;;;;;0.00;0.00;;;;;;;;;;5050902;28;20036;-89
2023/04/07 00:42:24;;;;;;;0.00;0.00;;;;;;;;;;5034698;28;20101;-88
2023/04/07 00:44:50;;;;;;;0.00;0.00;;;;;;;;;;5034790;28;20088;-90
2023/04/07 00:47:16;;;;;;;0.00;0.00;;;;;;;;;;5050973;28;20041;-89
2023/04/07 00:49:42;;;;;;;0.00;0.00;;;;;;;;;;5034779;28;20118;-89
2023/04/07 00:52:10;;;;;;;0.00;0.00;;;;;;;;;;5034368;28;20128;-90
2023/04/07 00:54:36;;;;;;;0.00;0.00;;;;;;;;;;5051076;28;20488;-89
2023/04/07 00:57:02;;;;;;;0.82;0.15;;;;;;;;;;5051051;28;20087;-89
2023/04/07 00:59:31;;;;;;;0.10;0.00;;;;;;;;;;5034978;28;20072;-89
2023/04/07 01:02:03;;;;;;;0.00;0.00;;;;;;;;;;5034342;28;20041;-88
2023/04/07 01:04:35;;;;;;;0.00;0.00;;;;;;;;;;5051202;28;20063;-89
2023/04/07 01:07:06;;;;;;;0.00;0.00;;;;;;;;;;5034395;28;20087;-89
2023/04/07 01:09:42;;;;;;;0.00;0.00;;;;;;;;;;5051058;28;20056;-88
2023/04/07 01:12:15;;;;;;;0.10;0.10;;;;;;;;;;5050764;28;20167;-90
2023/04/07 01:14:45;;;;;;;0.00;0.00;;;;;;;;;;5050932;28;20048;-89
2023/04/07 01:17:12;;;;;;;0.00;0.00;;;;;;;;;;5050559;28;20131;-88
2023/04/07 01:19:56;;;;;;;0.00;0.00;;;;;;;;;;5034087;28;20104;-89
2023/04/07 01:22:24;;;;;;;0.00;0.00;;;;;;;;;;5050906;28;20080;-89
2023/04/07 01:25:02;;;;;;;0.00;0.00;;;;;;;;;;5034606;28;20079;-89
2023/04/07 01:27:31;;;;;;;0.00;0.00;;;;;;;;;;5050657;28;20041;-90
2023/04/07 01:29:59;;;;;;;0.00;0.00;;;;;;;;;;5034534;28;20045;-89
2023/04/07 01:32:27;;;;;;;0.00;0.00;;;;;;;;;;5050566;28;20056;-90
2023/04/07 01:34:54;;;;;;;0.00;0.00;;;;;;;;;;5050858;28;20500;-89
2023/04/07 01:37:21;;;;;;;0.05;0.00;;;;;;;;;;5050426;28;20041;-89
2023/04/07 01:39:47;;;;;;;0.00;0.00;;;;;;;;;;5050668;28;20064;-88
2023/04/07 01:42:14;;;;;;;0.00;0.00;;;;;;;;;;5033780;28;20037;-89
2023/04/07 01:44:41;;;;;;;0.00;0.00;;;;;;;;;;5050638;28;20041;-90
2023/04/07 01:47:07;;;;;;;0.00;0.00;;;;;;;;;;5050489;28;20045;-89
2023/04/07 01:49:33;;;;;;;0.00;0.00;;;;;;;;;;5051430;28;20040;-90
2023/04/07 01:51:59;;;;;;;0.00;0.00;;;;;;;;;;5037547;28;20044;-89
2023/04/07 01:54:26;;;;;;;0.00;0.00;;;;;;;;;;5037405;28;20148;-89
2023/04/07 01:56:52;;;;;;;0.25;0.00;;;;;;;;;;5054265;28;20049;-89
2023/04/07 01:59:18;;;;;;;0.00;0.00;;;;;;;;;;5037502;28;20098;-89
2023/04/07 02:01:44;;;;;;;0.00;0.00;;;;;;;;;;5053882;28;20124;-89
2023/04/07 02:04:30;;;;;;;0.00;0.00;;;;;;;;;;5054151;28;20044;-90
2023/04/07 02:07:01;;;;;;;0.00;0.00;;;;;;;;;;5037298;28;20048;-89
2023/04/07 02:09:29;;;;;;;0.00;0.00;;;;;;;;;;5037521;28;20048;-89
2023/04/07 02:11:58;;;;;;;0.17;0.13;;;;;;;;;;5053870;28;20423;-88
2023/04/07 02:14:24;;;;;;;0.00;0.00;;;;;;;;;;5053820;28;20100;-89
2023/04/07 02:16:51;;;;;;;0.00;0.00;;;;;;;;;;5037136;28;20037;-89
2023/04/07 02:19:17;;;;;;;0.00;0.00;;;;;;;;;;5053572;28;20098;-90
2023/04/07 02:21:43;;;;;;;0.43;0.20;;;;;;;;;;5036992;28;20123;-89
2023/04/07 02:24:11;;;;;;;0.00;0.00;;;;;;;;;;5036817;28;20546;-89
2023/04/07 02:26:37;;;;;;;0.00;0.00;;;;;;;;;;5053534;28;20041;-90
2023/04/07 02:29:04;;;;;;;0.00;0.00;;;;;;;;;;5036874;28;20048;-89
2023/04/07 02:31:30;;;;;;;0.00;0.00;;;;;;;;;;5036718;28;20037;-89
2023/04/07 02:33:56;;;;;;;0.00;0.00;;;;;;;;;;5036454;28;20040;-90
2023/04/07 02:36:22;;;;;;;0.00;0.00;;;;;;;;;;5053433;28;20040;-90
2023/04/07 02:38:48;;;;;;;0.00;0.00;;;;;;;;;;5037090;28;20452;-89
2023/04/07 02:41:14;;;;;;;0.00;0.00;;;;;;;;;;5036875;28;20079;-89
2023/04/07 02:43:40;;;;;;;0.00;0.00;;;;;;;;;;5036637;28;20174;-89
2023/04/07 02:46:06;;;;;;;0.00;0.00;;;;;;;;;;5053629;28;20106;-88
2023/04/07 02:48:32;;;;;;;0.00;0.00;;;;;;;;;;5036363;28;20044;-89
2023/04/07 02:50:59;;;;;;;0.00;0.00;;;;;;;;;;5053308;28;20040;-89
2023/04/07 02:53:25;;;;;;;0.03;0.03;;;;;;;;;;5052696;28;20057;-90
2023/04/07 02:55:51;;;;;;;0.00;0.00;;;;;;;;;;5036585;28;20444;-90
2023/04/07 02:58:17;;;;;;;0.00;0.00;;;;;;;;;;5052953;28;20037;-88
2023/04/07 03:00:43;;;;;;;0.00;0.00;;;;;;;;;;5053262;28;20056;-90
2023/04/07 03:03:09;;;;;;;0.00;0.00;;;;;;;;;;5035867;28;20489;-89
2023/04/07 03:05:35;;;;;;;0.00;0.00;;;;;;;;;;5036618;28;20055;-91
2023/04/07 03:08:01;;;;;;;0.00;0.00;;;;;;;;;;5036281;28;20132;-90
2023/04/07 03:10:27;;;;;;;0.13;0.10;;;;;;;;;;5036437;28;20431;-88
2023/04/07 03:12:53;;;;;;;0.20;0.10;;;;;;;;;;5036003;28;20103;-90
2023/04/07 03:15:19;;;;;;;0.00;0.00;;;;;;;;;;5036666;28;20048;-90
2023/04/07 03:17:45;;;;;;;0.00;0.00;;;;;;;;;;5036092;28;20048;-89
2023/04/07 03:20:12;;;;;;;0.00;0.00;;;;;;;;;;5052848;28;20033;-90
2023/04/07 03:22:38;;;;;;;0.00;0.00;;;;;;;;;;5036387;28;20033;-90
2023/04/07 03:25:04;;;;;;;0.22;0.00;;;;;;;;;;5052836;28;20037;-89
2023/04/07 03:27:30;;;;;;;0.00;0.00;;;;;;;;;;5035955;28;20048;-90
2023/04/07 03:29:57;;;;;;;0.00;0.00;;;;;;;;;;5035978;28;20128;-89
2023/04/07 03:32:23;;;;;;;0.75;0.10;;;;;;;;;;5052506;28;20040;-90
2023/04/07 03:34:49;;;;;;;0.00;0.00;;;;;;;;;;5036433;28;20041;-90
2023/04/07 03:37:15;;;;;;;0.00;0.00;;;;;;;;;;5035810;28;20048;-91
2023/04/07 03:39:41;;;;;;;0.00;0.00;;;;;;;;;;5052642;28;20094;-89
2023/04/07 03:42:07;;;;;;;0.00;0.00;;;;;;;;;;5052416;28;20409;-89
2023/04/07 03:44:33;;;;;;;0.00;0.00;;;;;;;;;;5052393;28;20044;-90
2023/04/07 03:47:00;;;;;;;0.10;0.03;;;;;;;;;;5053235;28;20550;-91
2023/04/07 03:49:26;;;;;;;0.00;0.00;;;;;;;;;;5053371;28;20044;-90
2023/04/07 03:51:52;;;;;;;0.00;0.00;;;;;;;;;;5036793;28;20047;-90
2023/04/07 03:54:18;;;;;;;0.20;0.10;;;;;;;;;;5052385;28;20072;-90
2023/04/07 03:56:44;;;;;;;0.00;0.00;;;;;;;;;;5035733;28;20060;-89
2023/04/07 03:59:10;;;;;;;0.00;0.00;;;;;;;;;;5052166;28;20123;-89
2023/04/07 04:01:36;;;;;;;0.00;0.00;;;;;;;;;;5035927;28;20484;-90
2023/04/07 04:04:02;;;;;;;0.00;0.00;;;;;;;;;;5051803;28;20092;-90
2023/04/07 04:06:28;;;;;;;0.52;0.15;;;;;;;;;;5035846;28;20366;-89
2023/04/07 04:08:54;;;;;;;0.10;0.10;;;;;;;;;;5035488;28;20045;-89
2023/04/07 04:11:21;;;;;;;0.00;0.00;;;;;;;;;;5052071;28;20045;-90
2023/04/07 04:13:47;;;;;;;0.00;0.00;;;;;;;;;;5034197;28;20047;-89
2023/04/07 04:16:12;;;;;;;0.00;0.00;;;;;;;;;;5035096;28;20132;-90
2023/04/07 04:18:38;;;;;;;0.73;0.38;;;;;;;;;;5051887;28;20043;-90
2023/04/07 04:21:05;;;;;;;0.25;0.08;;;;;;;;;;5035409;28;20037;-89
2023/04/07 04:23:31;;;;;;;0.00;0.00;;;;;;;;;;5034768;28;20036;-91
2023/04/07 04:25:59;;;;;;;0.00;0.00;;;;;;;;;;5052157;28;20043;-89
2023/04/07 04:28:25;;;;;;;0.20;0.13;;;;;;;;;;5034761;28;20072;-90
2023/04/07 04:30:51;;;;;;;0.00;0.00;;;;;;;;;;5051819;28;20045;-90
2023/04/07 04:33:17;;;;;;;0.52;0.52;;;;;;;;;;5035108;28;20495;-90
2023/04/07 04:35:44;;;;;;;0.00;0.00;;;;;;;;;;5035247;28;20045;-89
2023/04/07 04:38:10;;;;;;;0.35;0.10;;;;;;;;;;5051115;28;20148;-91
2023/04/07 04:40:36;;;;;;;0.00;0.00;;;;;;;;;;5034909;28;20033;-89
2023/04/07 04:43:05;;;;;;;0.00;0.00;;;;;;;;;;5051280;28;20045;-89
2023/04/07 04:45:33;;;;;;;0.10;0.08;;;;;;;;;;5034884;28;20037;-89
2023/04/07 04:47:59;;;;;;;0.00;0.00;;;;;;;;;;5034814;28;20158;-89
2023/04/07 04:50:25;;;;;;;0.00;0.00;;;;;;;;;;5051713;28;20403;-89
2023/04/07 04:52:51;;;;;;;0.03;0.00;;;;;;;;;;5034661;28;20052;-89
2023/04/07 04:55:17;;;;;;;0.00;0.00;;;;;;;;;;5051234;28;20350;-90
2023/04/07 04:57:43;;;;;;;0.00;0.00;;;;;;;;;;5034531;28;20045;-90
2023/04/07 05:00:09;;;;;;;0.30;0.08;;;;;;;;;;5035546;28;20476;-91
2023/04/07 05:02:36;;;;;;;0.47;0.25;;;;;;;;;;5034860;28;20037;-89
2023/04/07 05:05:02;;;;;;;0.00;0.00;;;;;;;;;;5034803;28;20219;-90
2023/04/07 05:07:29;;;;;;;0.30;0.10;;;;;;;;;;5052106;28;20081;-90
2023/04/07 05:09:55;;;;;;;0.00;0.00;;;;;;;;;;5034700;28;20045;-89
2023/04/07 05:12:21;;;;;;;0.00;0.00;;;;;;;;;;5034703;28;20067;-90
2023/04/07 05:14:47;;;;;;;0.00;0.00;;;;;;;;;;5034424;28;20045;-88
2023/04/07 05:17:13;;;;;;;0.10;0.05;;;;;;;;;;5051510;28;20041;-91
2023/04/07 05:19:40;;;;;;;0.00;0.00;;;;;;;;;;5034504;28;20124;-90
2023/04/07 05:22:08;;;;;;;0.00;0.00;;;;;;;;;;5034950;28;20048;-91
2023/04/07 05:24:34;;;;;;;0.20;0.03;;;;;;;;;;5035098;28;20051;-90
2023/04/07 05:27:00;;;;;;;0.00;0.00;;;;;;;;;;5039018;28;20036;-89
2023/04/07 05:29:26;;;;;;;0.00;0.00;;;;;;;;;;5038664;28;20045;-90
2023/04/07 05:31:52;;;;;;;0.00;0.00;;;;;;;;;;5055085;28;20381;-89
2023/04/07 05:34:18;;;;;;;0.60;0.35;;;;;;;;;;5038353;28;20131;-90
2023/04/07 05:36:44;;;;;;;0.03;0.03;;;;;;;;;;5055188;28;20045;-89
2023/04/07 05:39:10;;;;;;;0.00;0.00;;;;;;;;;;5054598;28;20047;-89
2023/04/07 05:41:36;;;;;;;0.00;0.00;;;;;;;;;;5054801;28;20128;-87
2023/04/07 05:44:03;;;;;;;0.13;0.10;;;;;;;;;;5038059;28;20045;-89
2023/04/07 05:46:29;;;;;;;0.00;0.00;;;;;;;;;;5054978;28;20090;-91
2023/04/07 05:48:55;;;;;;;0.00;0.00;;;;;;;;;;5054523;28;20048;-88
2023/04/07 05:51:21;;;;;;;0.00;0.00;;;;;;;;;;5038260;28;20182;-88
2023/04/07 05:53:47;;;;;;;0.00;0.00;;;;;;;;;;5037540;28;20056;-90
2023/04/07 05:56:13;;;;;;;0.55;0.13;;;;;;;;;;5037756;28;20068;-89
2023/04/07 05:58:39;;;;;;;0.00;0.00;;;;;;;;;;5038223;28;20120;-88
2023/04/07 06:01:05;;;;;;;0.20;0.15;;;;;;;;;;5037561;28;20041;-89
2023/04/07 06:03:31;;;;;;;1.08;0.20;;;;;;;;;;5037555;28;20080;-88
2023/04/07 06:05:57;;;;;;;0.00;0.00;;;;;;;;;;5037784;28;20033;-90
2023/04/07 06:08:23;;;;;;;0.00;0.00;;;;;;;;;;5037444;28;20403;-90
2023/04/07 06:10:49;;;;;;;0.00;0.00;;;;;;;;;;5037959;28;20186;-90
2023/04/07 06:13:15;;;;;;;0.00;0.00;;;;;;;;;;5037712;28;20500;-90
2023/04/07 06:15:41;;;;;;;0.00;0.00;;;;;;;;;;5054164;28;20045;-88
2023/04/07 06:18:07;;;;;;;0.00;0.00;;;;;;;;;;5053995;28;20115;-89
2023/04/07 06:20:34;;;;;;;0.00;0.00;;;;;;;;;;5053752;28;20323;-87
2023/04/07 06:23:00;;;;;;;0.00;0.00;;;;;;;;;;5037806;28;20044;-89
2023/04/07 06:25:26;;;;;;;0.00;0.00;;;;;;;;;;5037352;28;20037;-90
2023/04/07 06:27:53;;;;;;;0.00;0.00;;;;;;;;;;5037677;28;20098;-89
2023/04/07 06:30:19;;;;;;;0.03;0.00;;;;;;;;;;5037603;28;20483;-89
2023/04/07 06:32:45;;;;;;;0.00;0.00;;;;;;;;;;5054020;28;20045;-89
2023/04/07 06:35:11;;;;;;;0.10;0.00;;;;;;;;;;5053493;28;20392;-89
2023/04/07 06:37:38;;;;;;;0.00;0.00;;;;;;;;;;5052310;28;20045;-89
2023/04/07 06:40:04;;;;;;;0.30;0.13;;;;;;;;;;5036668;28;20037;-90
2023/04/07 06:42:30;;;;;;;0.08;0.00;;;;;;;;;;5036704;28;20040;-89
2023/04/07 06:44:56;;;;;;;0.00;0.00;;;;;;;;;;5037036;28;20165;-89
2023/04/07 06:47:23;;;;;;;0.00;0.00;;;;;;;;;;5037009;28;20551;-90
2023/04/07 06:49:49;;;;;;;0.00;0.00;;;;;;;;;;5036601;28;20037;-90
2023/04/07 06:52:15;;;;;;;0.25;0.10;;;;;;;;;;5036752;28;20127;-91
2023/04/07 06:54:41;;;;;;;0.00;0.00;;;;;;;;;;5036372;28;20104;-89
2023/04/07 06:57:10;;;;;;;0.00;0.00;;;;;;;;;;5053742;28;20045;-91
2023/04/07 06:59:37;;;;;;;0.00;0.00;;;;;;;;;;5037334;28;20153;-91
2023/04/07 07:02:03;;;;;;;0.35;0.20;;;;;;;;;;5036941;28;20121;-89
2023/04/07 07:04:29;;;;;;;0.00;0.00;;;;;;;;;;5036469;28;20059;-91
2023/04/07 07:06:55;;;;;;;0.00;0.00;;;;;;;;;;5037317;28;20044;-89
2023/04/07 07:09:21;;;;;;;0.00;0.00;;;;;;;;;;5053926;28;20095;-90
2023/04/07 07:11:47;;;;;;;0.00;0.00;;;;;;;;;;5037451;28;20041;-89
2023/04/07 07:14:13;;;;;;;0.00;0.00;;;;;;;;;;5053008;28;20102;-90
2023/04/07 07:16:40;;;;;;;1.45;0.30;;;;;;;;;;5036203;28;20519;-89
2023/04/07 07:19:06;;;;;;;0.40;0.40;;;;;;;;;;5036078;28;20045;-90
2023/04/07 07:21:32;;;;;;;0.00;0.00;;;;;;;;;;5036437;28;20076;-89
2023/04/07 07:23:58;;;;;;;0.08;0.00;;;;;;;;;;5052897;28;20494;-90
2023/04/07 07:26:25;;;;;;;0.00;0.00;;;;;;;;;;5052820;28;20049;-88
2023/04/07 07:28:51;;;;;;;0.00;0.00;;;;;;;;;;5035953;28;20049;-90
2023/04/07 07:31:17;;;;;;;0.38;0.13;;;;;;;;;;5035692;28;20365;-90
2023/04/07 07:33:44;;;;;;;0.00;0.00;;;;;;;;;;5037872;28;20470;-89
2023/04/07 07:36:10;;;;;;;0.00;0.00;;;;;;;;;;5052683;28;20435;-91
2023/04/07 07:38:36;;;;;;;0.25;0.03;;;;;;;;;;5036121;28;20494;-89
2023/04/07 07:41:03;;;;;;;0.00;0.00;;;;;;;;;;5035754;28;20037;-90
2023/04/07 07:43:29;;;;;;;0.00;0.00;;;;;;;;;;5035857;28;20033;-88
2023/04/07 07:45:55;;;;;;;0.00;0.00;;;;;;;;;;5035533;28;20043;-88
2023/04/07 07:48:21;;;;;;;0.00;0.00;;;;;;;;;;5035985;28;20501;-88
2023/04/07 07:50:47;;;;;;;0.00;0.00;;;;;;;;;;5035483;28;20179;-89
2023/04/07 07:53:14;;;;;;;0.00;0.00;;;;;;;;;;5032987;28;21125;-90
2023/04/07 07:55:43;;;;;;;0.00;0.00;;;;;;;;;;4999685;28;20045;-89
2023/04/07 07:58:09;;;;;;;0.65;0.10;;;;;;;;;;4999556;28;20053;-89
2023/04/07 08:00:35;;;;;;;0.10;0.00;;;;;;;;;;5015642;28;20140;-89
2023/04/07 08:03:01;;;;;;;0.08;0.03;;;;;;;;;;5015772;28;20065;-89
2023/04/07 08:05:27;;;;;;;0.15;0.10;;;;;;;;;;4998962;28;20044;-89
2023/04/07 08:07:54;;;;;;;5.93;0.73;;;;;;;;;;4999249;28;20083;-87
2023/04/07 08:10:20;;;;;;;0.10;0.10;;;;;;;;;;5015616;28;20057;-88
2023/04/07 08:12:46;;;;;;;0.00;0.00;;;;;;;;;;5000095;28;20126;-92
2023/04/07 08:15:12;;;;;;;0.00;0.00;;;;;;;;;;4999639;28;20440;-88
2023/04/07 08:17:38;;;;;;;2.33;0.20;;;;;;;;;;5015141;28;20041;-89
2023/04/07 08:20:05;;;;;;;0.20;0.13;;;;;;;;;;4998991;28;20096;-89
2023/04/07 08:22:31;;;;;;;0.93;0.10;;;;;;;;;;5015326;28;20049;-89
2023/04/07 08:24:57;;;;;;;0.28;0.28;;;;;;;;;;4999053;28;20043;-88
2023/04/07 08:27:23;;;;;;;0.65;0.10;;;;;;;;;;5015648;28;20148;-90
2023/04/07 08:29:58;;;;;;;0.45;0.45;;;;;;;;;;5015357;28;20480;-88
2023/04/07 08:32:24;;;;;;;0.00;0.00;;;;;;;;;;4999197;28;20500;-89
2023/04/07 08:34:50;;;;;;;0.10;0.08;;;;;;;;;;5014890;28;20356;-88
2023/04/07 08:37:16;;;;;;;0.00;0.00;;;;;;;;;;4999196;28;20108;-87
2023/04/07 08:39:42;;;;;;;0.00;0.00;;;;;;;;;;5015608;28;20102;-89
2023/04/07 08:42:08;;;;;;;0.10;0.10;;;;;;;;;;5015383;28;20527;-89
2023/04/07 08:44:36;;;;;;;0.90;0.50;;;;;;;;;;4999419;28;20511;-88
2023/04/07 08:47:03;;;;;;;0.73;0.10;;;;;;;;;;5014824;28;20132;-87
2023/04/07 08:49:31;;;;;;;0.20;0.10;;;;;;;;;;5015469;28;20081;-90
2023/04/07 08:51:59;;;;;;;0.00;0.00;;;;;;;;;;4999128;28;20048;-91
2023/04/07 08:54:25;;;;;;;0.00;0.00;;;;;;;;;;5020653;28;20093;-90
2023/04/07 08:56:51;;;;;;;0.38;0.17;;;;;;;;;;5035191;28;20099;-89
2023/04/07 08:59:17;;;;;;;0.03;0.03;;;;;;;;;;5035613;28;20452;-88
2023/04/07 09:01:44;;;;;;;0.10;0.08;;;;;;;;;;5039522;28;20045;-90
2023/04/07 09:04:10;;;;;;;0.63;0.10;;;;;;;;;;5039039;28;20110;-88
2023/04/07 09:06:36;;;;;;;0.10;0.00;;;;;;;;;;5039020;28;20143;-91
2023/04/07 09:09:07;;;;;;;0.38;0.38;;;;;;;;;;5056453;28;20048;-89
2023/04/07 09:11:38;;;;;;;0.10;0.10;;;;;;;;;;5039134;28;20098;-89
2023/04/07 09:14:04;;;;;;;0.25;0.10;;;;;;;;;;5055706;28;20087;-90
2023/04/07 09:16:31;;;;;;;0.50;0.35;;;;;;;;;;5055242;28;20050;-90
2023/04/07 09:18:57;;;;;;;0.00;0.00;;;;;;;;;;5038965;28;20037;-90
2023/04/07 09:21:23;;;;;;;0.30;0.10;;;;;;;;;;5039155;28;20404;-89
2023/04/07 09:23:49;;;;;;;0.47;0.13;;;;;;;;;;5055806;28;20475;-90
2023/04/07 09:26:21;;;;;;;0.52;0.22;;;;;;;;;;5039005;28;20048;-91
2023/04/07 09:28:53;;;;;;;0.17;0.05;;;;;;;;;;5039529;28;20036;-92
2023/04/07 09:31:20;;;;;;;0.00;0.00;;;;;;;;;;5039656;28;20036;-90
2023/04/07 09:33:47;;;;;;;0.45;0.30;;;;;;;;;;5056668;28;20193;-90
2023/04/07 09:36:12;;;;;;;0.00;0.00;;;;;;;;;;5039211;28;20074;-91
2023/04/07 09:38:40;;;;;;;0.25;0.00;;;;;;;;;;5039586;28;20036;-89
2023/04/07 09:41:10;;;;;;;0.35;0.17;;;;;;;;;;5039598;28;20069;-90
2023/04/07 09:43:38;;;;;;;0.00;0.00;;;;;;;;;;5056435;28;20029;-90
2023/04/07 09:46:14;;;;;;;0.10;0.00;;;;;;;;;;5038829;28;20041;-91
2023/04/07 09:48:41;;;;;;;0.98;0.38;;;;;;;;;;5042000;28;20033;-90
2023/04/07 09:51:08;;;;;;;0.00;0.00;;;;;;;;;;5039671;28;20037;-92
2023/04/07 09:53:48;;;;;;;0.00;0.00;;;;;;;;;;5039732;28;20057;-91
2023/04/07 09:56:15;;;;;;;0.00;0.00;;;;;;;;;;5055757;28;20037;-91
2023/04/07 09:58:42;;;;;;;0.13;0.13;;;;;;;;;;5039815;28;20037;-90
2023/04/07 10:01:09;;;;;;;0.00;0.00;;;;;;;;;;5039911;28;20036;-91
2023/04/07 10:03:36;;;;;;;0.00;0.00;;;;;;;;;;5039540;28;20461;-91
2023/04/07 10:06:02;;;;;;;0.00;0.00;;;;;;;;;;5038528;28;20055;-90
2023/04/07 10:08:31;;;;;;;0.00;0.00;;;;;;;;;;5054563;28;20053;-90
2023/04/07 10:10:58;;;;;;;0.45;0.00;;;;;;;;;;5037199;28;20128;-90
2023/04/07 10:13:25;;;;;;;0.00;0.00;;;;;;;;;;5054711;28;20055;-91
2023/04/07 10:15:51;;;;;;;0.05;0.05;;;;;;;;;;5054894;28;20397;-90
2023/04/07 10:18:18;;;;;;;0.15;0.00;;;;;;;;;;5038070;28;20040;-90
2023/04/07 10:20:45;;;;;;;0.00;0.00;;;;;;;;;;5037862;28;20083;-89
2023/04/07 10:23:16;;;;;;;0.25;0.25;;;;;;;;;;5037534;28;20040;-91
2023/04/07 10:25:44;;;;;;;0.00;0.00;;;;;;;;;;5037922;28;20067;-93
2023/04/07 10:28:12;;;;;;;0.00;0.00;;;;;;;;;;5038144;28;20044;-90
2023/04/07 10:30:38;;;;;;;0.00;0.00;;;;;;;;;;5054497;28;20119;-90
2023/04/07 10:33:04;;;;;;;0.38;0.30;;;;;;;;;;5055732;28;20045;-90
2023/04/07 10:35:49;;;;;;;0.00;0.00;;;;;;;;;;5038197;28;20047;-91
2023/04/07 10:38:15;;;;;;;0.98;0.10;;;;;;;;;;5038385;28;20049;-93
2023/04/07 10:40:42;;;;;;;0.10;0.08;;;;;;;;;;5021085;28;20136;-89
2023/04/07 10:43:10;;;;;;;0.03;0.00;;;;;;;;;;5038078;28;20041;-90
2023/04/07 10:45:48;;;;;;;0.10;0.10;;;;;;;;;;5037128;28;20033;-91
2023/04/07 10:48:17;;;;;;;0.00;0.00;;;;;;;;;;5036575;28;20040;-89
2023/04/07 10:51:09;;;;;;;0.05;0.00;;;;;;;;;;5054330;28;20132;-91
2023/04/07 10:53:38;;;;;;;0.00;0.00;;;;;;;;;;5036588;28;20056;-90
2023/04/07 10:56:05;;;;;;;0.57;0.43;;;;;;;;;;5053862;28;20079;-88
2023/04/07 10:58:32;;;;;;;0.03;0.00;;;;;;;;;;5053079;28;20044;-90
2023/04/07 11:01:13;;;;;;;0.00;0.00;;;;;;;;;;5036919;28;20041;-90
2023/04/07 11:03:41;;;;;;;0.00;0.00;;;;;;;;;;5053004;28;20048;-91
2023/04/07 11:06:11;;;;;;;0.17;0.00;;;;;;;;;;5053516;28;20121;-89
2023/04/07 11:08:43;;;;;;;0.00;0.00;;;;;;;;;;5036273;28;20547;-89
2023/04/07 11:11:10;;;;;;;0.10;0.00;;;;;;;;;;5036465;28;20131;-91
2023/04/07 11:13:50;;;;;;;0.00;0.00;;;;;;;;;;5036135;28;20511;-92
2023/04/07 11:16:18;;;;;;;0.00;0.00;;;;;;;;;;5036904;28;20049;-89
2023/04/07 11:18:45;;;;;;;0.00;0.00;;;;;;;;;;5036250;28;20045;-90
2023/04/07 11:21:11;;;;;;;0.00;0.00;;;;;;;;;;5036301;28;20068;-91
2023/04/07 11:23:44;;;;;;;0.00;0.00;;;;;;;;;;5052829;28;20421;-91
2023/04/07 11:26:15;;;;;;;0.00;0.00;;;;;;;;;;5037494;28;20041;-91
2023/04/07 11:28:59;;;;;;;0.30;0.10;;;;;;;;;;5053279;28;20053;-90
2023/04/07 11:31:26;;;;;;;0.00;0.00;;;;;;;;;;5036177;28;20041;-89
2023/04/07 11:33:57;;;;;;;0.22;0.05;;;;;;;;;;5035844;28;20046;-90
2023/04/07 11:36:32;;;;;;;0.10;0.03;;;;;;;;;;5036204;28;20098;-88
2023/04/07 11:38:59;;;;;;;0.00;0.00;;;;;;;;;;5036000;28;20127;-89
2023/04/07 11:41:26;;;;;;;0.00;0.00;;;;;;;;;;5035814;28;20144;-88
2023/04/07 11:44:13;;;;;;;0.00;0.00;;;;;;;;;;5052316;28;20033;-88
2023/04/07 11:46:55;;;;;;;0.00;0.00;;;;;;;;;;5035700;28;20045;-89
2023/04/07 11:49:22;;;;;;;0.00;0.00;;;;;;;;;;5035688;28;20500;-88
2023/04/07 11:51:48;;;;;;;0.00;0.00;;;;;;;;;;5035280;28;20514;-88
2023/04/07 11:54:15;;;;;;;0.00;0.00;;;;;;;;;;5034875;28;20110;-89
2023/04/07 11:56:42;;;;;;;0.00;0.00;;;;;;;;;;5035393;28;20110;-88
2023/04/07 11:59:08;;;;;;;0.00;0.00;;;;;;;;;;5034956;28;20098;-88
2023/04/07 12:01:39;;;;;;;0.20;0.00;;;;;;;;;;5035350;28;20045;-90
2023/04/07 12:04:06;;;;;;;0.00;0.00;;;;;;;;;;5051848;28;20040;-89
2023/04/07 12:06:40;;;;;;;0.00;0.00;;;;;;;;;;5035415;28;20044;-88
2023/04/07 12:09:06;;;;;;;0.00;0.00;;;;;;;;;;5051800;28;20041;-88
2023/04/07 12:11:33;;;;;;;0.10;0.10;;;;;;;;;;5051837;28;20059;-89
2023/04/07 12:13:59;;;;;;;0.03;0.03;;;;;;;;;;5035007;28;20036;-89
2023/04/07 12:16:25;;;;;;;0.38;0.10;;;;;;;;;;5051684;28;20081;-89
2023/04/07 12:18:51;;;;;;;0.17;0.10;;;;;;;;;;5051663;28;20090;-88
2023/04/07 12:21:18;;;;;;;0.00;0.00;;;;;;;;;;5051355;28;20044;-89
2023/04/07 12:23:46;;;;;;;0.10;0.00;;;;;;;;;;5051355;28;20033;-90
2023/04/07 12:26:12;;;;;;;0.00;0.00;;;;;;;;;;5051502;28;20041;-89
2023/04/07 12:28:38;;;;;;;0.00;0.00;;;;;;;;;;5051031;28;20220;-89
2023/04/07 12:31:04;;;;;;;0.00;0.00;;;;;;;;;;5034694;28;20044;-88
2023/04/07 12:33:30;;;;;;;0.20;0.05;;;;;;;;;;5051256;28;20090;-89
2023/04/07 12:35:57;;;;;;;0.00;0.00;;;;;;;;;;5033680;28;20064;-88
2023/04/07 12:38:23;;;;;;;0.00;0.00;;;;;;;;;;5050869;28;20041;-88
2023/04/07 12:40:50;;;;;;;0.28;0.28;;;;;;;;;;5051487;28;20037;-90
2023/04/07 12:43:16;;;;;;;0.00;0.00;;;;;;;;;;5034579;28;20487;-89
2023/04/07 12:45:42;;;;;;;0.00;0.00;;;;;;;;;;5051560;28;20037;-88
2023/04/07 12:48:08;;;;;;;0.00;0.00;;;;;;;;;;5051369;28;20052;-90
2023/04/07 12:50:35;;;;;;;0.00;0.00;;;;;;;;;;5034504;28;20519;-89
2023/04/07 12:53:04;;;;;;;0.00;0.00;;;;;;;;;;5033114;28;20055;-89
2023/04/07 12:55:35;;;;;;;0.00;0.00;;;;;;;;;;4998538;28;20052;-90
2023/04/07 12:58:01;;;;;;;0.00;0.00;;;;;;;;;;5014678;28;20045;-88
2023/04/07 13:00:27;;;;;;;0.00;0.00;;;;;;;;;;4999210;28;20068;-88
2023/04/07 13:02:54;;;;;;;0.00;0.00;;;;;;;;;;4998966;28;20107;-88
2023/04/07 13:05:20;;;;;;;0.00;0.00;;;;;;;;;;5014935;28;20049;-90
2023/04/07 13:07:46;;;;;;;0.00;0.00;;;;;;;;;;4999031;28;20455;-90
2023/04/07 13:10:12;;;;;;;0.20;0.10;;;;;;;;;;4999431;28;20081;-90
2023/04/07 13:12:38;;;;;;;0.47;0.30;;;;;;;;;;4999022;28;20095;-89
2023/04/07 13:15:05;;;;;;;0.00;0.00;;;;;;;;;;4998886;28;20088;-89
2023/04/07 13:17:31;;;;;;;0.00;0.00;;;;;;;;;;4998231;28;20048;-89
2023/04/07 13:19:57;;;;;;;0.22;0.10;;;;;;;;;;5014570;28;20034;-89
2023/04/07 13:22:24;;;;;;;0.00;0.00;;;;;;;;;;5014617;28;20366;-89
2023/04/07 13:24:50;;;;;;;0.00;0.00;;;;;;;;;;5014499;28;20073;-89
2023/04/07 13:27:16;;;;;;;0.00;0.00;;;;;;;;;;5014668;28;20053;-88
2023/04/07 13:29:42;;;;;;;0.00;0.00;;;;;;;;;;4997796;28;20050;-88
2023/04/07 13:32:11;;;;;;;0.00;0.00;;;;;;;;;;5014396;28;20084;-89
2023/04/07 13:34:37;;;;;;;0.00;0.00;;;;;;;;;;4997693;28;20041;-88
2023/04/07 13:37:04;;;;;;;0.00;0.00;;;;;;;;;;5014328;28;20049;-90
2023/04/07 13:39:30;;;;;;;0.08;0.03;;;;;;;;;;5014522;28;20063;-90
2023/04/07 13:41:57;;;;;;;0.00;0.00;;;;;;;;;;4998275;28;20128;-90
2023/04/07 13:44:27;;;;;;;0.00;0.00;;;;;;;;;;4997929;28;20481;-89
2023/04/07 13:46:53;;;;;;;0.20;0.05;;;;;;;;;;5000463;28;20045;-88
2023/04/07 13:49:19;;;;;;;0.10;0.10;;;;;;;;;;5017461;28;20037;-89
2023/04/07 13:51:45;;;;;;;0.00;0.00;;;;;;;;;;5017769;28;20124;-89
2023/04/07 13:54:11;;;;;;;0.00;0.00;;;;;;;;;;5018915;28;20145;-88
2023/04/07 13:56:37;;;;;;;0.00;0.00;;;;;;;;;;5037521;28;20487;-89
2023/04/07 13:59:07;;;;;;;0.00;0.00;;;;;;;;;;5037050;28;20045;-91
2023/04/07 14:01:34;;;;;;;0.10;0.10;;;;;;;;;;5054148;28;20095;-89
2023/04/07 14:04:01;;;;;;;0.00;0.00;;;;;;;;;;5054054;28;20379;-88
2023/04/07 14:06:27;;;;;;;0.00;0.00;;;;;;;;;;5037360;28;20040;-89
2023/04/07 14:08:53;;;;;;;0.00;0.00;;;;;;;;;;5037318;28;20527;-89
2023/04/07 14:11:21;;;;;;;0.00;0.00;;;;;;;;;;5037153;28;20072;-90
2023/04/07 14:13:47;;;;;;;0.00;0.00;;;;;;;;;;5037156;28;20086;-89
2023/04/07 14:16:13;;;;;;;0.00;0.00;;;;;;;;;;5037401;28;20135;-88
2023/04/07 14:18:39;;;;;;;0.00;0.00;;;;;;;;;;5036795;28;20667;-89
2023/04/07 14:21:05;;;;;;;0.00;0.00;;;;;;;;;;5037108;28;20033;-90
2023/04/07 14:23:32;;;;;;;0.00;0.00;;;;;;;;;;5036819;28;20037;-88
2023/04/07 14:25:58;;;;;;;0.00;0.00;;;;;;;;;;5053837;28;20073;-89
2023/04/07 14:28:24;;;;;;;0.00;0.00;;;;;;;;;;5053496;28;20048;-90
2023/04/07 14:30:51;;;;;;;0.00;0.00;;;;;;;;;;5037009;28;20471;-88
2023/04/07 14:33:17;;;;;;;0.00;0.00;;;;;;;;;;5020750;28;20037;-89
2023/04/07 14:35:43;;;;;;;0.00;0.00;;;;;;;;;;5053175;28;20064;-89
2023/04/07 14:38:09;;;;;;;0.05;0.05;;;;;;;;;;5036679;28;20045;-89
2023/04/07 14:40:35;;;;;;;0.00;0.00;;;;;;;;;;5036748;28;20041;-88
2023/04/07 14:43:02;;;;;;;0.00;0.00;;;;;;;;;;5053101;28;20372;-89